Impacts TAF Board INFO
FOR SITUATIONAL AWARENESS. NOT TO BE USED FOR FLIGHT PLANNING PURPOSES.
IDs:

KLGA - New York/La Guardia, NY, US

Issued at 1127 UTC 18 Nov 2017
Updated at 1217 UTC 18 Nov 2017
Potential Impact None Slight Moderate High
Time<<19/13Z 19/14Z 19/15Z 19/16Z 19/17Z 19/18Z 19/19Z 19/20Z 19/21Z 19/22Z 19/23Z 20/00Z 20/01Z
Type
VIS
CIG
Cover
FltCat
WX
WDir
WSpd
WGst

Raw TAF
KLGA 181127Z 1812/1912 VRB05KT P6SM BKN250
  FM181400 20010G16KT P6SM BKN150
  FM181800 20014G23KT P6SM VCSH SCT050 BKN100
  FM190000 21016G25KT 6SM -SHRA BR SCT015 BKN025
  FM190800 21022G32KT 3SM SHRA BR SCT007 BKN015


METAR Board
Radar Display
Forecast Discussion

FOR SITUATIONAL AWARENESS. NOT TO BE USED FOR FLIGHT PLANNING PURPOSES.